Time;durP1;ratioP1;P1;durP2;ratioP2;P2;SDS_P1;SDS_P2;PMS_P1;PMS_P2;Temp;Humidity;BMP_temperature;BMP_pressure;BME280_temperature;BME280_humidity;BME280_pressure;Samples;Min_cycle;Max_cycle;Signal;HPM_P1;HPM_P2
2022/08/11 00:02:47;;;;;;;6.07;4.22;;;;;;;21.16;100.00;102289.84;5074208;28;20031;-69
2022/08/11 00:05:15;;;;;;;11.30;4.10;;;;;;;21.10;100.00;102285.41;5074395;28;20028;-69
2022/08/11 00:07:47;;;;;;;6.72;4.15;;;;;;;20.98;100.00;102294.38;5074336;28;20016;-69
2022/08/11 00:10:16;;;;;;;12.98;3.90;;;;;;;21.04;100.00;102296.16;5074340;28;20034;-70
2022/08/11 00:12:43;;;;;;;9.65;4.22;;;;;;;21.01;100.00;102298.81;5074178;28;20381;-70
2022/08/11 00:15:10;;;;;;;8.68;3.95;;;;;;;20.99;100.00;102292.59;5074181;28;20055;-70
2022/08/11 00:17:37;;;;;;;6.63;4.60;;;;;;;20.96;100.00;102297.94;5074101;28;20033;-69
2022/08/11 00:20:10;;;;;;;6.00;3.92;;;;;;;21.03;100.00;102294.38;5074035;28;20124;-68
2022/08/11 00:22:39;;;;;;;5.00;3.97;;;;;;;20.96;100.00;102293.50;5072845;28;20024;-69
2022/08/11 00:25:14;;;;;;;6.30;4.03;;;;;;;20.96;100.00;102287.25;5072542;28;20016;-68
2022/08/11 00:27:40;;;;;;;6.63;4.43;;;;;;;20.95;100.00;102296.19;5074222;28;20021;-69
2022/08/11 00:30:07;;;;;;;7.28;4.10;;;;;;;20.91;100.00;102292.63;5074057;28;20032;-70
2022/08/11 00:32:36;;;;;;;9.07;3.70;;;;;;;20.84;100.00;102293.53;5073707;28;20170;-69
2022/08/11 00:35:02;;;;;;;6.75;4.35;;;;;;;20.81;100.00;102299.78;5073562;28;20024;-69
2022/08/11 00:37:29;;;;;;;7.95;4.03;;;;;;;20.86;100.00;102297.09;5073719;28;20376;-69
2022/08/11 00:39:56;;;;;;;8.90;3.92;;;;;;;20.86;100.00;102298.00;5073653;28;20021;-69
2022/08/11 00:42:45;;;;;;;8.35;3.90;;;;;;;20.89;100.00;102297.09;5073574;28;20110;-69
2022/08/11 00:45:25;;;;;;;10.95;3.80;;;;;;;20.80;100.00;102298.00;5073733;28;20041;-69
2022/08/11 00:48:13;;;;;;;11.27;4.38;;;;;;;20.75;100.00;102291.78;5073545;28;20081;-69
2022/08/11 00:51:15;;;;;;;13.82;4.20;;;;;;;20.80;100.00;102299.81;5073412;28;20033;-70
2022/08/11 00:53:58;;;;;;;6.75;3.72;;;;;;;20.75;100.00;102299.78;5073391;28;20032;-69
2022/08/11 00:57:08;;;;;;;8.27;4.20;;;;;;;20.65;100.00;102292.69;5073185;28;20566;-69
2022/08/11 01:00:11;;;;;;;4.95;3.50;;;;;;;20.53;100.00;102304.28;5064067;28;20091;-70
2022/08/11 01:03:17;;;;;;;6.75;3.75;;;;;;;20.46;100.00;102303.41;5073354;28;20314;-71
2022/08/11 01:06:05;;;;;;;5.80;3.70;;;;;;;20.48;100.00;102301.63;5073334;28;20103;-69
2022/08/11 01:08:39;;;;;;;8.90;3.90;;;;;;;20.35;100.00;102295.38;5073256;28;20028;-69
2022/08/11 01:11:05;;;;;;;6.32;3.67;;;;;;;20.37;100.00;102290.94;5073118;28;20391;-69
2022/08/11 01:13:36;;;;;;;11.65;4.03;;;;;;;20.31;100.00;102288.25;5073046;28;20099;-68
2022/08/11 01:16:29;;;;;;;8.05;3.80;;;;;;;20.24;100.00;102285.59;5073090;28;20496;-70
2022/08/11 01:19:32;;;;;;;9.68;3.80;;;;;;;20.13;100.00;102283.81;5073199;28;20020;-69
2022/08/11 01:22:29;;;;;;;5.63;3.42;;;;;;;20.19;100.00;102285.59;5072974;28;20029;-70
2022/08/11 01:25:19;;;;;;;6.20;3.80;;;;;;;20.28;100.00;102282.00;5072979;28;20077;-69
2022/08/11 01:28:03;;;;;;;7.70;3.65;;;;;;;20.23;100.00;102283.81;5072908;28;20028;-69
2022/08/11 01:31:06;;;;;;;6.57;3.30;;;;;;;20.16;100.00;102288.28;5072921;28;20107;-69
2022/08/11 01:34:01;;;;;;;6.43;3.50;;;;;;;20.15;100.00;102283.81;5072932;28;20496;-70
2022/08/11 01:36:57;;;;;;;4.88;3.63;;;;;;;20.13;100.00;102277.56;5072850;28;20131;-70
2022/08/11 01:40:00;;;;;;;10.65;3.55;;;;;;;20.07;100.00;102280.25;5073060;28;20515;-70
2022/08/11 01:45:56;;;;;;;7.10;3.55;;;;;;;19.84;100.00;102276.66;5072885;28;20396;-70
2022/08/11 01:48:39;;;;;;;5.90;3.85;;;;;;;19.81;100.00;102274.00;5073881;28;20044;-70
2022/08/11 01:51:19;;;;;;;4.57;3.92;;;;;;;19.70;100.00;102273.06;5077106;28;20020;-70
2022/08/11 01:53:59;;;;;;;9.85;3.95;;;;;;;19.70;100.00;102278.41;5076896;28;20028;-70
2022/08/11 01:56:43;;;;;;;7.07;4.30;;;;;;;19.77;100.00;102284.66;5076756;28;20162;-70
2022/08/11 01:59:47;;;;;;;8.88;3.70;;;;;;;19.83;100.00;102284.69;5076777;28;20173;-71
2022/08/11 02:02:44;;;;;;;4.45;3.40;;;;;;;19.78;100.00;102278.41;5076683;28;20108;-69
2022/08/11 02:05:42;;;;;;;11.52;3.60;;;;;;;19.80;100.00;102282.91;5076381;28;20036;-70
2022/08/11 02:08:20;;;;;;;5.15;3.67;;;;;;;19.71;100.00;102275.75;5075167;28;20024;-70
2022/08/11 02:11:29;;;;;;;4.15;3.65;;;;;;;19.71;100.00;102281.09;5076546;28;20111;-70
2022/08/11 02:14:22;;;;;;;7.95;3.47;;;;;;;19.69;100.00;102284.63;5076502;28;20025;-69
2022/08/11 02:16:54;;;;;;;5.50;3.95;;;;;;;19.68;100.00;102278.41;5076388;28;20035;-69
2022/08/11 02:25:36;;;;;;;6.15;3.75;;;;;;;19.45;100.00;102282.81;5076335;28;20035;-69
2022/08/11 02:28:07;;;;;;;6.07;3.92;;;;;;;19.34;100.00;102275.66;5076162;28;20476;-69
2022/08/11 02:30:41;;;;;;;6.40;4.30;;;;;;;19.29;100.00;102271.19;5076191;28;20029;-69
2022/08/11 02:33:23;;;;;;;4.95;3.72;;;;;;;19.19;100.00;102272.94;5075934;28;20020;-69
2022/08/11 02:36:07;;;;;;;5.13;4.13;;;;;;;19.12;100.00;102266.69;5076046;28;20020;-70
2022/08/11 02:38:42;;;;;;;;;;;;;;;19.07;100.00;102265.75;5076281;28;20104;-69
2022/08/11 02:44:34;;;;;;;6.18;4.07;;;;;;;19.01;100.00;102249.75;5076206;28;20486;-69
2022/08/11 02:47:14;;;;;;;7.28;4.13;;;;;;;18.91;100.00;102253.25;5075817;28;20028;-70
2022/08/11 02:49:53;;;;;;;5.53;4.03;;;;;;;18.84;100.00;102253.22;5076025;28;20052;-70
2022/08/11 02:52:30;;;;;;;4.82;3.88;;;;;;;18.77;100.00;102256.72;5075938;28;20033;-70
2022/08/11 02:55:18;;;;;;;7.32;4.40;;;;;;;18.74;100.00;102256.69;5075559;28;20044;-69
2022/08/11 02:57:53;;;;;;;5.55;4.15;;;;;;;18.76;100.00;102262.03;5076064;28;20523;-69
2022/08/11 03:00:19;;;;;;;7.28;4.10;;;;;;;18.71;100.00;102256.69;5075665;28;20032;-69
2022/08/11 03:03:15;;;;;;;8.00;4.55;;;;;;;18.63;100.00;102258.44;5075443;28;20031;-70
2022/08/11 03:06:18;;;;;;;9.05;4.80;;;;;;;18.53;100.00;102253.03;5075457;28;20111;-71
2022/08/11 03:08:59;;;;;;;6.83;4.13;;;;;;;18.56;100.00;102256.59;5075585;28;20036;-69
2022/08/11 03:18:11;;;;;;;6.10;4.30;;;;;;;18.55;100.00;102255.72;5075619;28;20066;-69
2022/08/11 03:20:57;;;;;;;10.05;4.47;;;;;;;18.61;100.00;102257.50;5075336;28;20032;-69
2022/08/11 03:23:28;;;;;;;8.02;4.75;;;;;;;18.51;100.00;102248.56;5075432;28;20560;-70
2022/08/11 03:26:04;;;;;;;8.57;4.88;;;;;;;18.52;100.00;102251.25;5075091;28;20025;-70
2022/08/11 03:28:42;;;;;;;7.15;4.45;;;;;;;18.53;100.00;102246.81;5073993;28;20036;-70
2022/08/11 03:31:36;;;;;;;7.25;4.60;;;;;;;18.47;100.00;102249.44;5075321;28;20430;-69
2022/08/11 03:34:12;;;;;;;8.82;4.55;;;;;;;18.43;100.00;102251.19;5074979;28;20056;-69
2022/08/11 03:37:10;;;;;;;7.72;4.40;;;;;;;18.37;100.00;102249.38;5074962;28;20051;-69
2022/08/11 03:39:58;;;;;;;6.05;4.10;;;;;;;18.35;100.00;102247.56;5074859;28;20085;-70
2022/08/11 03:43:00;;;;;;;6.20;4.55;;;;;;;18.31;100.00;102245.78;5074825;28;20036;-70
2022/08/11 03:45:35;;;;;;;7.95;4.70;;;;;;;18.27;100.00;102255.53;5074874;28;20017;-69
2022/08/11 03:48:38;;;;;;;8.10;4.88;;;;;;;18.25;100.00;102251.06;5074770;28;20024;-69
2022/08/11 03:51:26;;;;;;;6.15;4.38;;;;;;;18.18;100.00;102259.00;5074675;28;20036;-70
2022/08/11 03:54:18;;;;;;;7.40;4.82;;;;;;;18.13;100.00;102252.75;5074633;28;20582;-70
2022/08/11 03:56:59;;;;;;;8.00;4.85;;;;;;;18.10;100.00;102247.41;5054457;28;20076;-70
2022/08/11 03:59:33;;;;;;;7.50;4.82;;;;;;;18.00;100.00;102253.53;5054459;28;20025;-70
2022/08/11 04:02:14;;;;;;;8.55;4.80;;;;;;;18.00;100.00;102250.84;5054312;28;20541;-69
2022/08/11 04:05:03;;;;;;;8.90;5.28;;;;;;;17.93;100.00;102239.25;5054386;28;20100;-70
2022/08/11 04:07:51;;;;;;;6.57;4.85;;;;;;;17.89;100.00;102241.88;5054428;28;20032;-69
2022/08/11 04:10:30;;;;;;;6.18;5.07;;;;;;;17.84;100.00;102250.72;5053709;28;20033;-70
2022/08/11 04:13:27;;;;;;;6.75;4.97;;;;;;;17.84;100.00;102255.16;5052930;28;20021;-70
2022/08/11 04:16:32;;;;;;;9.18;4.57;;;;;;;17.81;100.00;102245.38;5054207;28;20021;-69
2022/08/11 04:19:39;;;;;;;9.48;5.25;;;;;;;17.75;100.00;102253.28;5053964;28;20074;-69
2022/08/11 04:22:19;;;;;;;8.10;5.72;;;;;;;17.75;100.00;102244.41;5053554;28;20485;-68
2022/08/11 04:25:05;;;;;;;9.38;4.55;;;;;;;17.75;100.00;102249.75;5061031;28;20020;-70
2022/08/11 04:27:52;;;;;;;8.73;5.50;;;;;;;17.73;100.00;102255.06;5094216;28;20103;-70
2022/08/11 04:30:47;;;;;;;10.60;5.60;;;;;;;17.67;100.00;102253.19;5094096;28;20495;-69
2022/08/11 04:33:18;;;;;;;11.27;5.75;;;;;;;17.65;100.00;102249.66;5072513;28;20036;-70
2022/08/11 04:37:30;;;;;;;6.65;5.10;;;;;;;17.65;100.00;102249.66;5093927;28;20028;-69
2022/08/11 04:39:38;;;;;;;7.22;5.50;;;;;;;17.64;100.00;102246.97;5093821;28;20032;-70
2022/08/11 04:45:27;;;;;;;7.57;5.03;;;;;;;17.60;100.00;102245.16;5094194;28;20229;-69
2022/08/11 05:03:08;;;;;;;8.48;5.50;;;;;;;17.68;100.00;102255.00;5053457;28;20443;-69
2022/08/11 05:05:55;;;;;;;8.48;6.20;;;;;;;17.70;100.00;102249.69;5053339;28;20396;-70
2022/08/11 05:08:50;;;;;;;10.93;6.45;;;;;;;17.71;100.00;102254.13;5053118;28;20040;-69
2022/08/11 05:11:43;;;;;;;9.43;5.93;;;;;;;17.70;100.00;102247.94;5053239;28;20031;-69
2022/08/11 05:37:24;;;;;;;8.38;6.10;;;;;;;18.16;100.00;102263.44;5093274;28;20035;-70
2022/08/11 05:56:47;;;;;;;;;;;;;;;18.61;100.00;102262.84;5073177;28;20060;-70
2022/08/11 05:59:15;;;;;;;7.78;5.63;;;;;;;18.68;100.00;102260.22;5072813;28;19909;-70
2022/08/11 06:01:42;;;;;;;9.07;5.75;;;;;;;18.71;100.00;102262.03;5072733;28;20036;-70
2022/08/11 06:04:15;;;;;;;8.25;5.90;;;;;;;18.77;100.00;102259.38;5072591;28;20103;-70
2022/08/11 06:06:51;;;;;;;9.32;5.93;;;;;;;18.83;100.00;102256.75;5072871;28;20396;-69
2022/08/11 06:09:23;;;;;;;13.45;6.30;;;;;;;18.89;100.00;102255.03;5072567;28;20029;-70
2022/08/11 06:11:49;;;;;;;11.57;6.13;;;;;;;18.94;100.00;102259.50;5072614;28;20028;-70
2022/08/11 06:14:15;;;;;;;11.23;6.13;;;;;;;18.98;100.00;102260.41;5072789;28;20032;-69
2022/08/11 06:16:42;;;;;;;7.65;6.15;;;;;;;18.99;100.00;102264.84;5072719;28;20410;-70
2022/08/11 06:19:09;;;;;;;14.18;6.20;;;;;;;19.01;100.00;102266.63;5072610;28;20417;-68
2022/08/11 06:21:35;;;;;;;7.88;5.60;;;;;;;19.09;100.00;102274.69;5072417;28;20024;-70
2022/08/11 06:24:11;;;;;;;12.68;5.63;;;;;;;19.21;100.00;102264.06;5072602;28;20515;-69
2022/08/11 06:26:37;;;;;;;10.55;6.35;;;;;;;19.27;100.00;102268.50;5091456;28;20024;-70
2022/08/11 06:29:04;;;;;;;8.57;5.75;;;;;;;19.32;100.00;102256.06;5092812;28;20031;-70
2022/08/11 06:31:32;;;;;;;7.28;5.05;;;;;;;19.42;100.00;102254.31;5092832;28;20020;-70
2022/08/11 06:34:05;;;;;;;6.65;5.40;;;;;;;19.51;100.00;102262.34;5094120;28;20445;-70
2022/08/11 06:36:43;;;;;;;7.72;5.13;;;;;;;19.61;100.00;102251.69;5096589;28;20031;-69
2022/08/11 06:39:21;;;;;;;9.25;5.15;;;;;;;19.69;100.00;102260.59;5096420;28;20434;-70
2022/08/11 06:42:04;;;;;;;7.18;5.20;;;;;;;19.78;100.00;102257.94;5096272;28;20541;-70
2022/08/11 06:44:43;;;;;;;8.25;4.78;;;;;;;19.84;100.00;102255.28;5096219;28;20111;-70
2022/08/11 06:47:11;;;;;;;6.25;4.85;;;;;;;19.90;100.00;102258.88;5095124;28;20024;-69
2022/08/11 06:52:38;;;;;;;10.80;5.57;;;;;;;20.09;100.00;102260.66;5096037;28;20054;-70
2022/08/11 06:55:08;;;;;;;7.25;5.10;;;;;;;20.18;100.00;102266.00;5089122;28;20044;-69
2022/08/11 07:00:27;;;;;;;6.65;5.13;;;;;;;20.33;100.00;102270.44;5075817;28;20094;-71
2022/08/11 07:03:08;;;;;;;6.53;5.15;;;;;;;20.37;100.00;102264.19;5075740;28;20024;-69
2022/08/11 07:05:46;;;;;;;5.43;4.63;;;;;;;20.39;100.00;102266.88;5075559;28;20101;-69
2022/08/11 07:17:23;;;;;;;6.85;4.85;;;;;;;20.70;100.00;102269.47;5075392;28;20056;-69
2022/08/11 07:31:29;;;;;;;9.80;4.03;;;;;;;21.17;100.00;102265.72;5093162;28;20031;-70
2022/08/11 07:34:18;;;;;;;10.43;4.45;;;;;;;21.26;100.00;102258.59;5095212;28;20123;-70
2022/08/11 07:36:51;;;;;;;7.95;4.38;;;;;;;21.35;100.00;102263.88;5095363;28;20031;-70
2022/08/11 07:39:23;;;;;;;5.82;3.72;;;;;;;21.45;100.00;102267.41;5093924;28;20028;-70
2022/08/11 07:41:51;;;;;;;7.20;3.63;;;;;;;21.52;100.00;102270.00;5094997;28;20063;-70
2022/08/11 07:44:17;;;;;;;6.15;3.10;;;;;;;21.64;100.00;102262.84;5095101;28;20043;-69
2022/08/11 07:52:35;;;;;;;10.45;4.88;;;;;;;21.88;100.00;102264.44;5095096;28;20598;-70
2022/08/11 07:55:13;;;;;;;6.40;4.03;;;;;;;21.97;100.00;102260.78;5088475;28;20503;-69
2022/08/11 08:19:43;;;;;;;7.45;4.13;;;;;;;22.93;100.00;102263.41;5074380;28;20124;-69
2022/08/11 08:22:10;;;;;;;12.50;4.75;;;;;;;23.01;100.00;102268.69;5072750;28;20028;-70
2022/08/11 08:24:40;;;;;;;9.02;4.80;;;;;;;23.08;100.00;102262.31;5073903;28;20020;-70
2022/08/11 08:27:08;;;;;;;7.85;4.22;;;;;;;23.16;100.00;102264.94;5074122;28;20074;-69
2022/08/11 08:32:21;;;;;;;5.18;4.13;;;;;;;23.41;100.00;102257.41;5074262;28;20549;-70
2022/08/11 08:34:50;;;;;;;8.82;2.95;;;;;;;23.58;100.00;102263.44;5073925;28;20024;-69
2022/08/11 08:37:20;;;;;;;5.85;3.22;;;;;;;23.74;100.00;102258.72;5073801;28;20056;-70
2022/08/11 08:39:47;;;;;;;7.93;3.85;;;;;;;23.85;100.00;102250.47;5073970;28;20028;-69
2022/08/11 08:42:18;;;;;;;12.43;4.38;;;;;;;23.95;99.51;102255.72;5073581;28;20107;-69
2022/08/11 08:44:49;;;;;;;5.57;3.78;;;;;;;24.03;100.00;102254.66;5073831;28;20476;-70
2022/08/11 08:47:17;;;;;;;12.98;4.15;;;;;;;24.15;100.00;102258.97;5073520;28;20028;-70
2022/08/11 08:49:52;;;;;;;8.43;4.40;;;;;;;24.28;99.65;102267.72;5073595;28;20028;-70
2022/08/11 08:52:22;;;;;;;5.80;2.90;;;;;;;24.39;98.69;102259.41;5073619;28;20043;-69
2022/08/11 08:54:54;;;;;;;10.55;3.80;;;;;;;24.50;95.72;102257.41;5073354;28;20449;-69
2022/08/11 08:57:22;;;;;;;17.17;3.17;;;;;;;24.62;95.15;102263.50;5073403;28;20042;-70
2022/08/11 08:59:48;;;;;;;5.30;3.55;;;;;;;24.70;92.58;102256.16;5073524;28;20063;-69
2022/08/11 09:02:16;;;;;;;6.07;3.47;;;;;;;24.81;92.98;102259.53;5072084;28;20545;-70
2022/08/11 09:04:44;;;;;;;5.88;3.85;;;;;;;24.99;92.41;102260.94;5073307;28;20028;-70
2022/08/11 09:07:11;;;;;;;8.30;4.13;;;;;;;25.16;89.33;102260.56;5073394;28;20104;-69
2022/08/11 09:09:42;;;;;;;8.75;3.60;;;;;;;25.24;84.94;102258.63;5073398;28;20487;-70
2022/08/11 09:12:10;;;;;;;9.63;3.50;;;;;;;25.35;85.44;102257.50;5073309;28;20020;-68
2022/08/11 09:17:23;;;;;;;12.82;3.42;;;;;;;25.66;84.10;102259.47;5073493;28;20035;-69
2022/08/11 09:19:57;;;;;;;7.85;3.67;;;;;;;25.85;80.56;102258.09;5073214;28;20070;-69
2022/08/11 09:27:55;;;;;;;8.65;2.80;;;;;;;26.30;78.15;102245.28;5073379;28;20131;-70
2022/08/11 09:30:26;;;;;;;6.43;3.20;;;;;;;26.35;75.42;102248.75;5072908;28;20027;-69
2022/08/11 09:32:59;;;;;;;5.72;2.97;;;;;;;26.49;75.23;102237.56;5073102;28;20016;-69
2022/08/11 09:35:28;;;;;;;;;;;;;;;26.64;75.66;102236.25;5073372;28;20518;-69
2022/08/11 09:40:46;;;;;;;11.00;2.95;;;;;;;26.97;70.19;102230.81;5073315;28;20043;-69
2022/08/11 09:45:59;;;;;;;7.00;3.25;;;;;;;27.28;71.80;102238.88;5073219;28;20090;-70
2022/08/11 09:48:27;;;;;;;6.03;2.25;;;;;;;27.46;65.42;102233.84;5072864;28;20116;-69
2022/08/11 09:50:56;;;;;;;9.98;2.97;;;;;;;27.63;62.87;102226.03;5072950;28;20017;-69
2022/08/11 09:53:24;;;;;;;8.30;2.20;;;;;;;27.79;62.66;102229.09;5072929;28;20464;-69
2022/08/11 09:55:50;;;;;;;6.18;2.40;;;;;;;27.93;59.05;102223.22;5072573;28;20075;-69
2022/08/11 09:58:16;;;;;;;3.33;2.20;;;;;;;28.09;61.69;102231.72;5072692;28;20043;-70
2022/08/11 10:00:44;;;;;;;7.80;2.47;;;;;;;28.28;64.10;102229.25;5072884;28;20099;-70
2022/08/11 10:03:32;;;;;;;4.45;2.03;;;;;;;28.42;62.06;102223.34;5072679;28;20037;-70
2022/08/11 10:08:46;;;;;;;4.88;2.17;;;;;;;28.80;55.82;102220.16;5073832;28;20538;-71
2022/08/11 10:11:15;;;;;;;7.10;2.15;;;;;;;28.91;57.29;102213.38;5076515;28;20024;-70
2022/08/11 10:16:31;;;;;;;2.95;2.35;;;;;;;29.19;54.74;102212.28;5076745;28;20552;-70
2022/08/11 10:19:01;;;;;;;9.13;2.28;;;;;;;29.30;52.43;102209.19;5076265;28;20030;-70
2022/08/11 10:21:40;;;;;;;7.05;2.45;;;;;;;29.38;49.82;102207.03;5074868;28;20025;-69
2022/08/11 10:26:53;;;;;;;3.17;2.10;;;;;;;29.70;48.89;102201.19;5056474;28;20091;-69
2022/08/11 10:35:16;;;;;;;2.97;1.42;;;;;;;30.20;43.09;102195.41;5056327;28;20036;-69
2022/08/11 10:37:44;;;;;;;8.20;1.88;;;;;;;30.37;40.16;102191.94;5055951;28;20106;-69
2022/08/11 10:40:17;;;;;;;10.80;1.98;;;;;;;30.44;36.41;102195.22;5055977;28;20043;-69
2022/08/11 10:48:14;;;;;;;11.48;2.10;;;;;;;30.83;37.80;102188.91;5056094;28;20095;-70
2022/08/11 10:58:58;;;;;;;4.60;1.70;;;;;;;31.17;35.03;102181.88;5075629;28;20115;-69
2022/08/11 11:01:33;;;;;;;7.53;1.60;;;;;;;31.37;35.14;102182.72;5075522;28;20024;-69
2022/08/11 11:04:06;;;;;;;4.45;1.83;;;;;;;31.57;35.89;102182.59;5075661;28;20043;-68
2022/08/11 11:06:42;;;;;;;7.93;1.92;;;;;;;31.87;35.24;102189.28;5075477;28;20044;-69
2022/08/11 11:09:12;;;;;;;9.88;1.50;;;;;;;31.91;34.72;102172.69;5074156;28;20123;-70
2022/08/11 11:19:59;;;;;;;6.10;1.58;;;;;;;32.54;33.91;102176.59;5074494;28;20036;-69
2022/08/11 11:22:38;;;;;;;3.97;1.42;;;;;;;32.69;32.20;102168.53;5075361;28;20468;-70
2022/08/11 11:25:20;;;;;;;3.63;1.20;;;;;;;32.72;34.42;102173.84;5075206;28;20457;-70
2022/08/11 11:28:11;;;;;;;5.88;1.55;;;;;;;32.97;33.00;102177.94;5075116;28;20115;-69
2022/08/11 11:31:23;;;;;;;7.40;2.80;;;;;;;33.08;32.69;102173.59;5075016;28;20029;-69
2022/08/11 11:34:14;;;;;;;2.08;1.55;;;;;;;33.36;33.77;102191.13;5070921;28;20037;-70
2022/08/11 11:36:51;;;;;;;3.92;1.48;;;;;;;33.37;32.17;102175.59;5075013;28;20033;-70
2022/08/11 11:39:21;;;;;;;6.68;1.83;;;;;;;33.56;33.89;102181.75;5074981;28;20537;-69
2022/08/11 11:41:50;;;;;;;4.82;1.77;;;;;;;33.94;32.84;102181.28;5074823;28;20376;-69
2022/08/11 11:44:16;;;;;;;6.10;2.25;;;;;;;34.05;32.15;102180.63;5074750;28;20157;-69
2022/08/11 11:46:44;;;;;;;7.38;1.77;;;;;;;34.39;33.45;102181.28;5074784;28;20468;-70
2022/08/11 11:49:11;;;;;;;4.47;1.70;;;;;;;34.52;31.06;102175.88;5074736;28;20028;-70
2022/08/11 11:51:37;;;;;;;4.90;1.75;;;;;;;34.65;31.78;102169.63;5074726;28;20060;-70
2022/08/11 11:54:03;;;;;;;3.78;1.50;;;;;;;34.84;29.76;102174.81;5074696;28;20070;-70
2022/08/11 11:56:30;;;;;;;3.10;1.65;;;;;;;34.74;30.39;102174.50;5074315;28;20056;-69
2022/08/11 12:01:42;;;;;;;10.98;1.90;;;;;;;34.78;32.51;102165.09;5074786;28;20082;-70
2022/08/11 12:04:10;;;;;;;2.72;1.92;;;;;;;35.01;30.62;102149.94;5074423;28;20031;-70
2022/08/11 12:06:36;;;;;;;2.80;2.08;;;;;;;35.10;31.64;102153.94;5074348;28;20021;-70
2022/08/11 12:09:03;;;;;;;5.05;1.95;;;;;;;35.07;31.49;102159.63;5074413;28;20427;-69
2022/08/11 12:14:17;;;;;;;5.18;1.90;;;;;;;35.47;32.00;102154.19;5074445;28;20059;-69
2022/08/11 12:16:44;;;;;;;6.65;2.00;;;;;;;35.57;30.52;102149.84;5074228;28;20028;-69
2022/08/11 12:19:17;;;;;;;4.53;2.20;;;;;;;35.65;30.92;102153.88;5074048;28;20032;-69
2022/08/11 12:27:20;;;;;;;8.60;1.70;;;;;;;35.42;31.05;102142.66;5074475;28;20030;-68
2022/08/11 12:29:51;;;;;;;2.80;1.90;;;;;;;35.64;29.99;102144.81;5073996;28;20035;-70
2022/08/11 12:32:20;;;;;;;14.63;2.17;;;;;;;35.73;30.06;102135.06;5073556;28;20016;-70
2022/08/11 12:34:46;;;;;;;3.47;1.67;;;;;;;36.09;28.58;102133.47;5073709;28;20070;-71
2022/08/11 12:37:13;;;;;;;10.02;2.03;;;;;;;35.90;31.19;102122.94;5073763;28;20052;-71
2022/08/11 12:45:26;;;;;;;6.55;1.90;;;;;;;36.07;30.22;102125.38;5073706;28;20039;-69
2022/08/11 12:53:30;;;;;;;7.40;1.80;;;;;;;36.47;29.82;102113.38;5073748;28;20043;-70
2022/08/11 12:58:49;;;;;;;5.82;1.67;;;;;;;36.98;26.39;102104.13;5073719;28;20502;-69
2022/08/11 13:06:45;;;;;;;6.38;1.85;;;;;;;37.02;26.43;102091.94;5073472;28;20036;-70
2022/08/11 13:09:11;;;;;;;3.97;1.90;;;;;;;36.77;29.34;102092.88;5073171;28;20032;-70
2022/08/11 13:14:26;;;;;;;6.05;1.65;;;;;;;36.85;27.59;102084.97;5073512;28;20035;-70
2022/08/11 13:19:40;;;;;;;6.40;1.98;;;;;;;36.69;26.90;102089.84;5073552;28;20043;-70
2022/08/11 13:22:06;;;;;;;7.25;1.90;;;;;;;36.83;26.25;102081.47;5071803;28;20480;-70
2022/08/11 13:24:33;;;;;;;8.10;2.00;;;;;;;36.34;27.33;102087.84;5071855;28;20024;-71
2022/08/11 13:26:59;;;;;;;7.85;1.88;;;;;;;36.80;27.97;102076.19;5073203;28;20023;-70
2022/08/11 13:29:27;;;;;;;3.75;2.08;;;;;;;37.10;27.09;102083.06;5073300;28;20036;-69
2022/08/11 13:31:57;;;;;;;5.90;1.48;;;;;;;37.45;25.18;102087.72;5073173;28;20013;-70
2022/08/11 13:34:25;;;;;;;2.80;1.60;;;;;;;37.52;26.21;102088.97;5073058;28;20097;-68
2022/08/11 13:36:54;;;;;;;4.90;2.17;;;;;;;37.51;25.41;102087.25;5072955;28;20032;-69
2022/08/11 13:39:22;;;;;;;4.35;1.80;;;;;;;37.03;26.79;102071.69;5073062;28;20051;-70
2022/08/11 13:41:48;;;;;;;6.07;1.52;;;;;;;36.94;26.94;102076.03;5072952;28;20034;-70
2022/08/11 13:44:16;;;;;;;5.50;2.00;;;;;;;37.60;26.53;102078.28;5075071;28;20063;-69
2022/08/11 13:46:42;;;;;;;13.27;1.77;;;;;;;37.82;25.07;102087.56;5077053;28;20024;-70
2022/08/11 13:49:09;;;;;;;9.52;1.80;;;;;;;37.74;25.21;102074.44;5077035;28;20051;-70
2022/08/11 13:51:38;;;;;;;4.53;1.40;;;;;;;37.76;26.87;102075.19;5076941;28;20090;-70
2022/08/11 13:54:09;;;;;;;7.82;1.75;;;;;;;37.63;24.91;102075.28;5076996;28;20025;-70
2022/08/11 13:56:38;;;;;;;4.65;1.77;;;;;;;37.82;26.59;102068.34;5076637;28;20052;-69
2022/08/11 13:59:06;;;;;;;2.78;1.60;;;;;;;38.07;25.01;102066.34;5076775;28;20021;-69
2022/08/11 14:01:35;;;;;;;7.63;1.67;;;;;;;38.25;24.00;102059.34;5076822;28;20040;-70
2022/08/11 14:04:25;;;;;;;7.05;1.73;;;;;;;37.62;25.59;102059.81;5076563;28;20453;-70
2022/08/11 14:06:53;;;;;;;7.28;1.73;;;;;;;37.60;26.91;102059.06;5076602;28;20077;-70
2022/08/11 14:09:26;;;;;;;7.70;1.95;;;;;;;37.37;26.49;102065.50;5076552;28;20032;-70
2022/08/11 14:14:46;;;;;;;9.70;2.03;;;;;;;37.68;26.32;102058.44;5076906;28;20036;-70
2022/08/11 14:17:16;;;;;;;5.40;1.95;;;;;;;37.11;26.79;102046.41;5076455;28;20028;-71
2022/08/11 14:19:43;;;;;;;6.88;1.80;;;;;;;37.00;26.42;102049.13;5076279;28;20070;-70
2022/08/11 14:22:12;;;;;;;7.90;2.00;;;;;;;36.72;26.76;102051.19;5076216;28;20415;-69
2022/08/11 14:24:40;;;;;;;3.75;2.00;;;;;;;36.85;27.14;102045.69;5076314;28;20472;-70
2022/08/11 14:27:09;;;;;;;5.90;2.30;;;;;;;36.39;27.45;102033.56;5076204;28;20074;-69
2022/08/11 14:29:38;;;;;;;3.92;1.55;;;;;;;36.63;27.39;102034.44;5076375;28;20455;-69
2022/08/11 14:32:10;;;;;;;5.82;1.73;;;;;;;37.22;25.99;102029.97;5076207;28;20021;-70
2022/08/11 14:34:40;;;;;;;8.10;1.90;;;;;;;37.57;25.82;102034.56;5076068;28;20074;-69
2022/08/11 14:37:09;;;;;;;4.97;1.60;;;;;;;36.72;26.58;102018.28;5075958;28;20024;-70
2022/08/11 14:39:41;;;;;;;7.53;2.03;;;;;;;36.15;26.09;102028.00;5075993;28;20021;-69
2022/08/11 14:47:43;;;;;;;6.70;1.75;;;;;;;36.86;25.71;102020.88;5076031;28;20063;-69
2022/08/11 14:50:14;;;;;;;6.80;1.80;;;;;;;36.13;26.15;102012.56;5075772;28;20024;-69
2022/08/11 14:52:49;;;;;;;4.18;1.67;;;;;;;36.43;26.13;102016.75;5075925;28;20020;-70
2022/08/11 14:58:01;;;;;;;3.83;1.65;;;;;;;36.47;26.04;102016.56;5076220;28;20087;-69
2022/08/11 15:00:27;;;;;;;11.00;2.03;;;;;;;35.82;26.92;102011.16;5075544;28;20388;-69
2022/08/11 15:03:09;;;;;;;3.42;1.65;;;;;;;35.41;26.74;102009.53;5075618;28;20043;-69
2022/08/11 15:05:39;;;;;;;6.20;2.33;;;;;;;35.45;26.87;102005.59;5074722;28;20521;-70
2022/08/11 15:08:05;;;;;;;7.40;2.45;;;;;;;35.32;27.72;102000.09;5075707;28;20537;-70
2022/08/11 15:10:32;;;;;;;3.58;1.80;;;;;;;35.15;27.55;101998.53;5075489;28;20021;-70
2022/08/11 15:12:58;;;;;;;4.10;1.70;;;;;;;35.11;27.01;101991.53;5075467;28;20476;-70
2022/08/11 15:18:12;;;;;;;11.45;2.13;;;;;;;35.02;26.86;101993.03;5075628;28;20039;-69
2022/08/11 15:26:17;;;;;;;18.90;2.38;;;;;;;34.83;28.27;101982.50;5090324;28;20047;-69
2022/08/11 15:37:30;;;;;;;5.68;1.17;;;;;;;34.10;30.48;101972.72;5095337;28;20077;-69
2022/08/11 15:46:00;;;;;;;3.30;1.50;;;;;;;34.02;29.57;101975.09;5095296;28;20441;-70
2022/08/11 15:48:34;;;;;;;5.28;1.73;;;;;;;33.88;29.66;101968.66;5095013;28;20027;-69
2022/08/11 15:51:10;;;;;;;4.07;1.85;;;;;;;33.77;29.33;101968.47;5095147;28;20040;-68
2022/08/11 15:53:48;;;;;;;6.78;1.38;;;;;;;33.32;28.97;101963.09;5095183;28;20490;-68
2022/08/11 15:56:15;;;;;;;3.30;1.70;;;;;;;33.36;29.82;101971.94;5078343;28;20136;-68
2022/08/11 16:04:23;;;;;;;5.35;1.67;;;;;;;33.05;30.79;101960.19;5074766;28;20071;-69
2022/08/11 16:06:49;;;;;;;3.28;2.05;;;;;;;33.24;30.52;101960.81;5073720;28;20112;-68
2022/08/11 16:09:19;;;;;;;6.15;2.40;;;;;;;33.21;31.17;101960.09;5074228;28;20032;-69
2022/08/11 16:11:47;;;;;;;3.85;2.10;;;;;;;32.97;30.79;101960.66;5074506;28;20446;-69
2022/08/11 16:17:00;;;;;;;9.75;1.88;;;;;;;32.72;32.97;101961.25;5074554;28;20503;-69
2022/08/11 16:19:34;;;;;;;6.20;2.38;;;;;;;32.51;32.22;101957.94;5074149;28;20464;-69
2022/08/11 16:22:01;;;;;;;4.93;1.52;;;;;;;32.55;32.51;101956.78;5074232;28;20024;-69
2022/08/11 16:24:29;;;;;;;3.75;1.55;;;;;;;32.61;32.37;101954.56;5074933;28;20020;-69